createdAt,value
2018-01-23T00:00:29.818Z,99.99
2018-01-23T00:01:29.791Z,99.99
2018-01-23T00:02:29.761Z,99.99
2018-01-23T00:03:29.730Z,99.99
2018-01-23T00:04:29.694Z,99.99
2018-01-23T00:05:29.674Z,99.99
2018-01-23T00:06:29.639Z,99.99
2018-01-23T00:07:29.608Z,99.99
2018-01-23T00:08:29.585Z,99.99
2018-01-23T00:09:29.555Z,99.99
2018-01-23T00:10:29.511Z,99.99
2018-01-23T00:11:29.489Z,99.99
2018-01-23T00:12:29.455Z,99.99
2018-01-23T00:13:29.428Z,99.99
2018-01-23T00:14:29.398Z,99.99
2018-01-23T00:15:29.364Z,99.99
2018-01-23T00:16:29.337Z,99.99
2018-01-23T00:17:29.311Z,99.99
2018-01-23T00:18:29.271Z,99.99
2018-01-23T00:19:29.246Z,99.99
2018-01-23T00:20:29.223Z,99.99
2018-01-23T00:21:29.190Z,99.99
2018-01-23T00:22:29.158Z,99.99
2018-01-23T00:23:29.130Z,99.99
2018-01-23T00:24:29.097Z,99.99
2018-01-23T00:25:29.066Z,99.99
2018-01-23T00:26:29.035Z,99.99
2018-01-23T00:27:29.008Z,99.99
2018-01-23T00:28:28.970Z,99.99
2018-01-23T00:29:28.938Z,99.99
2018-01-23T00:30:28.910Z,99.99
2018-01-23T00:31:28.880Z,99.99
2018-01-23T00:32:28.855Z,99.99
2018-01-23T00:33:28.817Z,99.99
2018-01-23T00:34:28.785Z,99.99
2018-01-23T00:35:28.760Z,99.99
2018-01-23T00:36:28.737Z,99.99
2018-01-23T00:37:28.701Z,99.99
2018-01-23T00:38:28.669Z,99.99
2018-01-23T00:39:28.673Z,99.99
2018-01-23T00:40:28.612Z,99.99
2018-01-23T00:41:28.586Z,99.99
2018-01-23T00:42:28.552Z,99.99
2018-01-23T00:43:28.522Z,99.99
2018-01-23T00:44:28.484Z,99.99
2018-01-23T00:45:30.143Z,99.99
2018-01-23T00:46:28.424Z,99.99
2018-01-23T00:47:30.144Z,99.99
2018-01-23T00:48:28.364Z,99.99
2018-01-23T00:49:28.344Z,99.99
2018-01-23T00:50:28.307Z,99.99
2018-01-23T00:51:28.284Z,99.99
2018-01-23T00:52:28.247Z,99.99
2018-01-23T00:53:28.225Z,99.99
2018-01-23T00:54:28.192Z,99.99
2018-01-23T00:55:28.175Z,99.99
2018-01-23T00:56:28.125Z,99.99
2018-01-23T00:57:28.099Z,99.99
2018-01-23T00:58:28.073Z,99.99
2018-01-23T00:59:28.036Z,99.99
2018-01-23T01:00:28.000Z,99.99
2018-01-23T01:01:29.649Z,99.99
2018-01-23T01:02:27.952Z,99.99
2018-01-23T01:03:27.911Z,99.99
2018-01-23T01:04:27.887Z,99.99
2018-01-23T01:05:27.852Z,99.99
2018-01-23T01:06:27.825Z,99.99
2018-01-23T01:07:30.647Z,99.99
2018-01-23T01:08:27.766Z,99.99
2018-01-23T01:09:27.738Z,99.99
2018-01-23T01:10:27.702Z,99.99
2018-01-23T01:11:27.678Z,99.99
2018-01-23T01:12:27.642Z,99.99
2018-01-23T01:13:27.615Z,99.99
2018-01-23T01:14:27.587Z,99.99
2018-01-23T01:15:27.554Z,99.99
2018-01-23T01:16:27.532Z,99.99
2018-01-23T01:17:27.491Z,99.99
2018-01-23T01:18:27.463Z,99.99
2018-01-23T01:19:27.430Z,99.99
2018-01-23T01:20:27.407Z,99.99
2018-01-23T01:21:27.372Z,99.99
2018-01-23T01:22:27.338Z,99.99
2018-01-23T01:23:27.314Z,99.99
2018-01-23T01:24:27.283Z,99.99
2018-01-23T01:25:27.254Z,99.99
2018-01-23T01:26:27.232Z,99.99
2018-01-23T01:27:27.195Z,99.99
2018-01-23T01:28:27.163Z,99.99
2018-01-23T01:29:27.133Z,99.99
2018-01-23T01:30:27.110Z,99.99
2018-01-23T01:31:28.648Z,99.99
2018-01-23T01:32:27.041Z,99.99
2018-01-23T01:33:27.072Z,99.99
2018-01-23T01:34:26.980Z,99.99
2018-01-23T01:35:26.948Z,99.99
2018-01-23T01:36:26.926Z,99.99
2018-01-23T01:37:26.888Z,99.99
2018-01-23T01:38:26.863Z,99.99
2018-01-23T01:39:26.834Z,99.99
2018-01-23T01:40:26.802Z,99.99
2018-01-23T01:41:26.777Z,99.99
2018-01-23T01:42:26.744Z,99.99
2018-01-23T01:43:26.714Z,99.99
2018-01-23T01:44:26.686Z,99.99
2018-01-23T01:45:26.662Z,99.99
2018-01-23T01:46:26.624Z,99.99
2018-01-23T01:47:26.598Z,99.99
2018-01-23T01:48:26.560Z,99.99
2018-01-23T01:49:26.529Z,99.99
2018-01-23T01:50:26.500Z,99.99
2018-01-23T01:51:26.470Z,99.99
2018-01-23T01:52:28.149Z,99.99
2018-01-23T01:53:26.409Z,99.99
2018-01-23T01:54:26.380Z,99.99
2018-01-23T01:55:26.361Z,99.99
2018-01-23T01:56:26.325Z,99.99
2018-01-23T01:57:26.329Z,99.99
2018-01-23T01:58:26.272Z,99.99
2018-01-23T01:59:26.235Z,99.99
2018-01-23T02:00:26.209Z,99.99
2018-01-23T02:01:26.174Z,99.99
2018-01-23T02:02:26.146Z,99.99
2018-01-23T02:03:26.116Z,99.99
2018-01-23T02:04:26.080Z,99.99
2018-01-23T02:05:26.052Z,99.99
2018-01-23T02:06:26.022Z,99.99
2018-01-23T02:07:25.989Z,99.99
2018-01-23T02:08:25.960Z,99.99
2018-01-23T02:09:27.660Z,99.99
2018-01-23T02:10:25.913Z,99.99
2018-01-23T02:11:27.654Z,99.99
2018-01-23T02:12:25.846Z,99.99
2018-01-23T02:13:25.815Z,99.99
2018-01-23T02:14:25.786Z,99.99
2018-01-23T02:15:25.755Z,99.99
2018-01-23T02:16:25.726Z,99.99
2018-01-23T02:17:25.705Z,99.99
2018-01-23T02:18:25.663Z,99.99
2018-01-23T02:19:25.633Z,99.99
2018-01-23T02:20:25.604Z,99.99
2018-01-23T02:21:25.573Z,99.99
2018-01-23T02:22:25.543Z,99.99
2018-01-23T02:23:25.517Z,99.99
2018-01-23T02:24:25.484Z,99.99
2018-01-23T02:25:25.458Z,99.99
2018-01-23T02:26:25.427Z,99.99
2018-01-23T02:27:25.396Z,99.99
2018-01-23T02:28:25.360Z,99.99
2018-01-23T02:29:27.112Z,99.99
2018-01-23T02:30:25.301Z,99.99
2018-01-23T02:31:25.273Z,99.99
2018-01-23T02:32:25.239Z,99.99
2018-01-23T02:33:27.220Z,99.99
2018-01-23T02:34:25.185Z,99.99
2018-01-23T02:35:25.157Z,99.99
2018-01-23T02:36:25.123Z,99.99
2018-01-23T02:37:25.098Z,99.99
2018-01-23T02:38:25.063Z,99.99
2018-01-23T02:39:25.034Z,99.99
2018-01-23T02:40:25.005Z,99.99
2018-01-23T02:41:24.977Z,99.99
2018-01-23T02:42:26.668Z,99.99
2018-01-23T02:43:24.919Z,99.99
2018-01-23T02:44:26.656Z,99.99
2018-01-23T02:45:24.852Z,99.99
2018-01-23T02:46:24.824Z,99.99
2018-01-23T02:47:24.790Z,99.99
2018-01-23T02:48:24.766Z,99.99
2018-01-23T02:49:24.738Z,99.99
2018-01-23T02:50:24.700Z,99.99
2018-01-23T02:51:24.683Z,99.99
2018-01-23T02:52:24.644Z,99.99
2018-01-23T02:53:24.619Z,99.99
2018-01-23T02:54:24.584Z,99.99
2018-01-23T02:55:24.567Z,99.99
2018-01-23T02:56:24.528Z,99.99
2018-01-23T02:57:24.499Z,99.99
2018-01-23T02:58:26.160Z,99.99
2018-01-23T02:59:24.429Z,99.99
2018-01-23T03:00:24.399Z,99.99
2018-01-23T03:01:24.370Z,99.99
2018-01-23T03:02:24.339Z,99.99
2018-01-23T03:03:24.325Z,99.99
2018-01-23T03:04:24.284Z,99.99
2018-01-23T03:05:24.253Z,99.99
2018-01-23T03:06:24.219Z,99.99
2018-01-23T03:07:24.197Z,99.99
2018-01-23T03:08:24.170Z,99.99
2018-01-23T03:09:24.141Z,99.99
2018-01-23T03:10:24.108Z,99.99
2018-01-23T03:11:24.075Z,99.99
2018-01-23T03:12:24.043Z,99.99
2018-01-23T03:13:24.013Z,99.99
2018-01-23T03:14:23.989Z,99.99
2018-01-23T03:15:23.952Z,99.99
2018-01-23T03:16:23.918Z,99.99
2018-01-23T03:17:23.890Z,99.99
2018-01-23T03:18:23.860Z,99.99
2018-01-23T03:19:23.832Z,99.99
2018-01-23T03:20:23.799Z,99.99
2018-01-23T03:21:23.771Z,99.99
2018-01-23T03:22:23.736Z,99.99
2018-01-23T03:23:23.719Z,99.99
2018-01-23T03:24:23.689Z,99.99
2018-01-23T03:25:23.656Z,99.99
2018-01-23T03:26:23.622Z,99.99
2018-01-23T03:27:23.592Z,99.99
2018-01-23T03:28:23.558Z,99.99
2018-01-23T03:29:25.173Z,99.99
2018-01-23T03:30:23.554Z,99.99
2018-01-23T03:31:23.474Z,99.99
2018-01-23T03:32:23.446Z,99.99
2018-01-23T03:33:23.429Z,99.99
2018-01-23T03:34:23.381Z,99.99
2018-01-23T03:35:23.354Z,99.99
2018-01-23T03:36:23.322Z,99.99
2018-01-23T03:37:23.295Z,99.99
2018-01-23T03:38:23.262Z,99.99
2018-01-23T03:39:23.235Z,99.99
2018-01-23T03:40:23.198Z,99.99
2018-01-23T03:41:23.170Z,99.99
2018-01-23T03:42:23.142Z,99.99
2018-01-23T03:43:23.107Z,99.99
2018-01-23T03:44:23.075Z,99.99
2018-01-23T03:45:23.050Z,99.99
2018-01-23T03:46:23.018Z,99.99
2018-01-23T03:47:22.998Z,99.99
2018-01-23T03:48:22.962Z,99.99
2018-01-23T03:49:22.933Z,99.99
2018-01-23T03:50:25.666Z,99.99
2018-01-23T03:51:22.875Z,99.99
2018-01-23T03:52:22.845Z,99.99
2018-01-23T03:53:22.817Z,99.99
2018-01-23T03:54:22.790Z,99.99
2018-01-23T03:55:25.664Z,99.99
2018-01-23T03:56:22.725Z,99.99
2018-01-23T03:57:22.690Z,99.99
2018-01-23T03:58:22.660Z,99.99
2018-01-23T03:59:22.630Z,99.99
2018-01-23T04:00:22.599Z,99.99
2018-01-23T04:01:22.573Z,99.99
2018-01-23T04:02:22.542Z,99.99
2018-01-23T04:03:22.555Z,99.99
2018-01-23T04:04:22.483Z,99.99
2018-01-23T04:05:22.452Z,99.99
2018-01-23T04:06:22.423Z,99.99
2018-01-23T04:07:22.395Z,99.99
2018-01-23T04:08:22.363Z,99.99
2018-01-23T04:09:22.333Z,99.99
2018-01-23T04:10:22.311Z,99.99
2018-01-23T04:11:22.276Z,99.99
2018-01-23T04:12:22.243Z,99.99
2018-01-23T04:13:22.221Z,99.99
2018-01-23T04:14:22.180Z,99.99
2018-01-23T04:15:22.152Z,99.99
2018-01-23T04:16:22.123Z,99.99
2018-01-23T04:17:22.089Z,99.99
2018-01-23T04:18:22.060Z,99.99
2018-01-23T04:19:22.035Z,99.99
2018-01-23T04:20:22.014Z,99.99
2018-01-23T04:21:21.984Z,99.99
2018-01-23T04:22:21.944Z,99.99
2018-01-23T04:23:21.918Z,99.99
2018-01-23T04:24:21.972Z,99.99
2018-01-23T04:25:21.855Z,99.99
2018-01-23T04:26:21.825Z,99.99
2018-01-23T04:27:21.789Z,99.99
2018-01-23T04:28:21.761Z,99.99
2018-01-23T04:29:21.733Z,99.99
2018-01-23T04:30:21.701Z,99.99
2018-01-23T04:31:21.675Z,99.99
2018-01-23T04:32:21.652Z,99.99
2018-01-23T04:33:21.618Z,99.99
2018-01-23T04:34:21.586Z,99.99
2018-01-23T04:35:21.551Z,99.99
2018-01-23T04:36:21.523Z,99.99
2018-01-23T04:37:21.500Z,99.99
2018-01-23T04:38:21.463Z,99.99
2018-01-23T04:39:21.437Z,99.99
2018-01-23T04:40:21.406Z,99.99
2018-01-23T04:41:21.374Z,99.99
2018-01-23T04:42:23.170Z,99.99
2018-01-23T04:43:21.320Z,99.99
2018-01-23T04:44:21.304Z,99.99
2018-01-23T04:45:21.270Z,99.99
2018-01-23T04:46:21.235Z,99.99
2018-01-23T04:47:21.203Z,99.99
2018-01-23T04:48:21.170Z,99.99
2018-01-23T04:49:21.140Z,99.99
2018-01-23T04:50:21.108Z,99.99
2018-01-23T04:51:21.074Z,99.99
2018-01-23T04:52:21.048Z,99.99
2018-01-23T04:53:21.020Z,99.99
2018-01-23T04:54:20.990Z,99.99
2018-01-23T04:55:20.956Z,99.99
2018-01-23T04:56:20.927Z,99.99
2018-01-23T04:57:20.900Z,99.99
2018-01-23T04:58:20.864Z,99.99
2018-01-23T04:59:20.846Z,99.99
2018-01-23T05:00:20.808Z,99.99
2018-01-23T05:01:20.784Z,99.99
2018-01-23T05:02:20.750Z,99.99
2018-01-23T05:03:22.673Z,99.99
2018-01-23T05:04:20.700Z,99.99
2018-01-23T05:05:20.661Z,99.99
2018-01-23T05:06:20.635Z,99.99
2018-01-23T05:07:20.600Z,99.99
2018-01-23T05:08:20.571Z,99.99
2018-01-23T05:09:20.542Z,99.99
2018-01-23T05:10:20.515Z,99.99
2018-01-23T05:11:20.484Z,99.99
2018-01-23T05:12:20.448Z,99.99
2018-01-23T05:13:20.424Z,99.99
2018-01-23T05:14:20.388Z,99.99
2018-01-23T05:15:20.365Z,99.99
2018-01-23T05:16:20.336Z,99.99
2018-01-23T05:17:20.307Z,99.99
2018-01-23T05:18:22.186Z,99.99
2018-01-23T05:19:20.252Z,99.99
2018-01-23T05:20:20.217Z,99.99
2018-01-23T05:21:20.200Z,99.99
2018-01-23T05:22:22.676Z,99.99
2018-01-23T05:23:20.124Z,99.99
2018-01-23T05:24:20.097Z,99.99
2018-01-23T05:25:20.060Z,99.99
2018-01-23T05:26:20.059Z,99.99
2018-01-23T05:27:20.003Z,99.99
2018-01-23T05:28:19.969Z,99.99
2018-01-23T05:29:22.677Z,99.99
2018-01-23T05:30:19.912Z,99.99
2018-01-23T05:31:19.886Z,99.99
2018-01-23T05:32:19.863Z,99.99
2018-01-23T05:33:19.826Z,99.99
2018-01-23T05:34:19.799Z,99.99
2018-01-23T05:35:19.777Z,99.99
2018-01-23T05:36:19.734Z,99.99
2018-01-23T05:37:19.701Z,99.99
2018-01-23T05:38:19.672Z,99.99
2018-01-23T05:39:19.645Z,99.99
2018-01-23T05:40:19.616Z,99.99
2018-01-23T05:41:19.591Z,99.99
2018-01-23T05:42:19.560Z,99.99
2018-01-23T05:43:19.527Z,99.99
2018-01-23T05:44:19.524Z,99.99
2018-01-23T05:45:19.471Z,99.99
2018-01-23T05:46:19.438Z,99.99
2018-01-23T05:47:19.408Z,99.99
2018-01-23T05:48:19.378Z,99.99
2018-01-23T05:49:22.180Z,99.99
2018-01-23T05:50:19.316Z,99.99
2018-01-23T05:51:22.178Z,99.99
2018-01-23T05:52:19.256Z,99.99
2018-01-23T05:53:19.228Z,99.99
2018-01-23T05:54:19.204Z,99.99
2018-01-23T05:55:19.166Z,99.99
2018-01-23T05:56:19.146Z,99.99
2018-01-23T05:57:19.114Z,99.99
2018-01-23T05:58:19.083Z,99.99
2018-01-23T05:59:19.048Z,99.99
2018-01-23T06:00:19.018Z,99.99
2018-01-23T06:01:18.992Z,99.99
2018-01-23T06:02:20.680Z,99.99
2018-01-23T06:03:18.925Z,99.99
2018-01-23T06:04:18.899Z,99.99
2018-01-23T06:05:18.866Z,99.99
2018-01-23T06:06:18.837Z,99.99
2018-01-23T06:07:18.808Z,99.99
2018-01-23T06:08:18.779Z,99.99
2018-01-23T06:09:18.746Z,99.99
2018-01-23T06:10:18.713Z,99.99
2018-01-23T06:11:18.686Z,99.99
2018-01-23T06:12:18.664Z,99.99
2018-01-23T06:13:18.626Z,99.99
2018-01-23T06:14:18.607Z,99.99
2018-01-23T06:15:18.623Z,99.99
2018-01-23T06:16:18.544Z,99.99
2018-01-23T06:17:18.516Z,99.99
2018-01-23T06:18:18.483Z,99.99
2018-01-23T06:19:18.442Z,99.99
2018-01-23T06:20:18.416Z,99.99
2018-01-23T06:21:18.389Z,99.99
2018-01-23T06:22:18.353Z,99.99
2018-01-23T06:23:18.328Z,99.99
2018-01-23T06:24:18.300Z,99.99
2018-01-23T06:25:18.267Z,99.99
2018-01-23T06:26:18.245Z,99.99
2018-01-23T06:27:18.213Z,99.99
2018-01-23T06:28:18.184Z,99.99
2018-01-23T06:29:18.149Z,99.99
2018-01-23T06:30:18.119Z,99.99
2018-01-23T06:31:18.088Z,99.99
2018-01-23T06:32:18.064Z,99.99
2018-01-23T06:33:18.029Z,99.99
2018-01-23T06:34:17.999Z,99.99
2018-01-23T06:35:17.964Z,99.99
2018-01-23T06:36:17.938Z,99.99
2018-01-23T06:37:17.913Z,99.99
2018-01-23T06:38:17.873Z,99.99
2018-01-23T06:39:17.848Z,99.99
2018-01-23T06:40:17.839Z,99.99
2018-01-23T06:41:17.797Z,99.99
2018-01-23T06:42:17.756Z,99.99
2018-01-23T06:43:17.737Z,99.99
2018-01-23T06:44:17.701Z,99.99
2018-01-23T06:45:17.665Z,99.99
2018-01-23T06:46:17.633Z,99.99
2018-01-23T06:47:17.605Z,99.99
2018-01-23T06:48:17.576Z,99.99
2018-01-23T06:49:17.545Z,99.99
2018-01-23T06:50:18.514Z,99.99
2018-01-23T06:51:17.552Z,99.99
2018-01-23T06:52:17.558Z,99.99
2018-01-23T06:53:17.486Z,99.99
2018-01-23T06:54:17.482Z,99.99
2018-01-23T06:55:17.724Z,99.99
2018-01-23T06:56:17.451Z,99.99
2018-01-23T06:57:17.433Z,99.99
2018-01-23T06:58:17.346Z,99.99
2018-01-23T06:59:17.388Z,99.99
2018-01-23T07:00:17.302Z,99.99
2018-01-23T07:01:17.215Z,99.99
2018-01-23T07:02:17.154Z,99.99
2018-01-23T07:03:17.130Z,99.99
2018-01-23T07:04:17.098Z,99.99
2018-01-23T07:05:17.068Z,99.99
2018-01-23T07:06:17.034Z,99.99
2018-01-23T07:07:17.015Z,99.99
2018-01-23T07:08:16.980Z,99.99
2018-01-23T07:09:16.949Z,99.99
2018-01-23T07:10:16.918Z,99.99
2018-01-23T07:11:16.894Z,99.99
2018-01-23T07:12:16.907Z,99.99
2018-01-23T07:13:16.836Z,99.99
2018-01-23T07:14:16.806Z,99.99
2018-01-23T07:15:16.796Z,99.99
2018-01-23T07:16:16.738Z,99.99
2018-01-23T07:17:16.705Z,99.99
2018-01-23T07:18:16.679Z,99.92
2018-01-23T07:19:16.647Z,99.99
2018-01-23T07:20:16.615Z,99.99
2018-01-23T07:21:16.602Z,99.99
2018-01-23T07:22:16.574Z,99.99
2018-01-23T07:23:16.535Z,99.99
2018-01-23T07:24:16.500Z,99.99
2018-01-23T07:25:16.474Z,99.99
2018-01-23T07:26:16.446Z,99.99
2018-01-23T07:27:20.201Z,99.99
2018-01-23T07:28:16.383Z,99.99
2018-01-23T07:29:18.239Z,99.99
2018-01-23T07:30:16.352Z,99.99
2018-01-23T07:31:16.310Z,99.99
2018-01-23T07:32:16.268Z,99.99
2018-01-23T07:33:18.323Z,99.99
2018-01-23T07:34:16.209Z,99.99
2018-01-23T07:35:16.169Z,99.99
2018-01-23T07:36:16.143Z,99.99
2018-01-23T07:37:16.110Z,99.73
2018-01-23T07:38:16.090Z,99.88
2018-01-23T07:39:16.072Z,99.88
2018-01-23T07:40:16.074Z,99.88
2018-01-23T07:41:15.995Z,99.69
2018-01-23T07:42:15.963Z,99.40
2018-01-23T07:43:15.962Z,99.99
2018-01-23T07:44:15.960Z,99.21
2018-01-23T07:45:15.874Z,99.59
2018-01-23T07:46:15.850Z,99.40
2018-01-23T07:47:15.814Z,99.69
2018-01-23T07:48:15.785Z,99.30
2018-01-23T07:49:15.754Z,99.30
2018-01-23T07:50:17.694Z,99.97
2018-01-23T07:51:15.695Z,99.78
2018-01-23T07:52:15.670Z,99.99
2018-01-23T07:53:17.198Z,99.99
2018-01-23T07:54:15.603Z,99.59
2018-01-23T07:55:15.577Z,99.99
2018-01-23T07:56:15.543Z,99.99
2018-01-23T07:57:17.192Z,99.97
2018-01-23T07:58:15.484Z,99.99
2018-01-23T07:59:15.452Z,99.99
2018-01-23T08:00:15.426Z,99.99
2018-01-23T08:01:15.397Z,99.99
2018-01-23T08:02:15.361Z,99.97
2018-01-23T08:03:15.336Z,99.99
2018-01-23T08:04:15.307Z,99.69
2018-01-23T08:05:15.278Z,99.78
2018-01-23T08:06:18.195Z,99.99
2018-01-23T08:07:15.217Z,99.99
2018-01-23T08:08:15.186Z,99.99
2018-01-23T08:09:15.163Z,99.97
2018-01-23T08:10:17.698Z,99.40
2018-01-23T08:11:15.095Z,99.11
2018-01-23T08:12:15.077Z,99.88
2018-01-23T08:13:15.036Z,99.59
2018-01-23T08:14:15.008Z,99.97
2018-01-23T08:15:14.978Z,99.97
2018-01-23T08:16:14.943Z,99.21
2018-01-23T08:17:14.918Z,99.30
2018-01-23T08:18:14.884Z,99.78
2018-01-23T08:19:14.858Z,99.97
2018-01-23T08:20:14.839Z,99.11
2018-01-23T08:21:14.802Z,99.40
2018-01-23T08:22:14.776Z,99.59
2018-01-23T08:23:14.740Z,98.93
2018-01-23T08:24:14.712Z,98.64
2018-01-23T08:25:14.684Z,98.83
2018-01-23T08:26:14.651Z,98.83
2018-01-23T08:27:14.623Z,99.30
2018-01-23T08:28:14.594Z,98.55
2018-01-23T08:29:14.565Z,98.83
2018-01-23T08:30:14.529Z,98.07
2018-01-23T08:31:14.507Z,98.83
2018-01-23T08:32:14.472Z,98.45
2018-01-23T08:33:14.450Z,98.26
2018-01-23T08:34:14.424Z,98.55
2018-01-23T08:35:14.387Z,98.45
2018-01-23T08:36:14.358Z,97.60
2018-01-23T08:37:16.208Z,97.69
2018-01-23T08:38:14.302Z,98.07
2018-01-23T08:39:14.269Z,97.97
2018-01-23T08:40:14.241Z,97.03
2018-01-23T08:41:14.210Z,97.50
2018-01-23T08:42:14.178Z,98.45
2018-01-23T08:43:14.148Z,97.03
2018-01-23T08:44:14.129Z,96.65
2018-01-23T08:45:14.087Z,97.22
2018-01-23T08:46:14.066Z,96.45
2018-01-23T08:47:14.035Z,96.36
2018-01-23T08:48:14.005Z,96.93
2018-01-23T08:49:13.976Z,96.45
2018-01-23T08:50:13.941Z,95.98
2018-01-23T08:51:13.910Z,96.45
2018-01-23T08:52:13.880Z,96.84
2018-01-23T08:53:13.896Z,96.93
2018-01-23T08:54:13.825Z,97.60
2018-01-23T08:55:13.795Z,96.69
2018-01-23T08:56:13.765Z,96.36
2018-01-23T08:57:13.732Z,95.98
2018-01-23T08:58:13.710Z,96.12
2018-01-23T08:59:13.682Z,96.31
2018-01-23T09:00:13.680Z,95.94
2018-01-23T09:01:13.622Z,96.31
2018-01-23T09:02:13.589Z,96.41
2018-01-23T09:03:15.202Z,96.41
2018-01-23T09:04:13.533Z,96.22
2018-01-23T09:05:16.202Z,95.84
2018-01-23T09:06:13.471Z,95.75
2018-01-23T09:07:13.445Z,95.56
2018-01-23T09:08:13.408Z,95.65
2018-01-23T09:09:13.384Z,95.08
2018-01-23T09:10:13.352Z,95.46
2018-01-23T09:11:13.326Z,95.36
2018-01-23T09:12:13.296Z,94.32
2018-01-23T09:13:13.261Z,94.60
2018-01-23T09:14:13.243Z,95.17
2018-01-23T09:15:13.214Z,94.51
2018-01-23T09:16:13.195Z,94.89
2018-01-23T09:17:13.152Z,94.98
2018-01-23T09:18:13.125Z,94.51
2018-01-23T09:19:13.090Z,94.13
2018-01-23T09:20:13.080Z,94.42
2018-01-23T09:21:13.032Z,93.65
2018-01-23T09:22:13.006Z,94.13
2018-01-23T09:23:12.977Z,94.03
2018-01-23T09:24:12.943Z,94.03
2018-01-23T09:25:12.914Z,94.22
2018-01-23T09:26:12.885Z,94.13
2018-01-23T09:27:12.854Z,94.32
2018-01-23T09:28:12.833Z,94.03
2018-01-23T09:29:12.804Z,94.32
2018-01-23T09:30:12.767Z,93.84
2018-01-23T09:31:12.744Z,93.55
2018-01-23T09:32:12.715Z,93.08
2018-01-23T09:33:12.684Z,93.18
2018-01-23T09:34:12.658Z,93.18
2018-01-23T09:35:12.623Z,93.27
2018-01-23T09:36:12.594Z,93.84
2018-01-23T09:37:12.580Z,93.37
2018-01-23T09:38:12.542Z,93.27
2018-01-23T09:39:12.512Z,93.94
2018-01-23T09:40:12.479Z,93.27
2018-01-23T09:41:12.448Z,93.55
2018-01-23T09:42:12.420Z,94.32
2018-01-23T09:43:12.396Z,94.42
2018-01-23T09:44:12.360Z,94.13
2018-01-23T09:45:12.335Z,94.22
2018-01-23T09:46:12.300Z,94.70
2018-01-23T09:47:12.277Z,93.84
2018-01-23T09:48:12.249Z,94.22
2018-01-23T09:49:12.219Z,94.03
2018-01-23T09:50:12.188Z,94.32
2018-01-23T09:51:12.158Z,94.51
2018-01-23T09:52:12.130Z,94.89
2018-01-23T09:53:12.176Z,95.17
2018-01-23T09:54:12.076Z,95.08
2018-01-23T09:55:12.044Z,95.17
2018-01-23T09:56:12.012Z,94.60
2018-01-23T09:57:11.979Z,94.98
2018-01-23T09:58:11.952Z,95.08
2018-01-23T09:59:11.923Z,95.46
2018-01-23T10:00:11.894Z,94.13
2018-01-23T10:01:11.876Z,93.37
2018-01-23T10:02:11.839Z,93.37
2018-01-23T10:03:14.708Z,94.22
2018-01-23T10:04:11.785Z,94.32
2018-01-23T10:05:11.756Z,93.46
2018-01-23T10:06:11.724Z,94.22
2018-01-23T10:07:11.697Z,93.65
2018-01-23T10:08:13.209Z,93.41
2018-01-23T10:09:11.638Z,93.04
2018-01-23T10:10:11.610Z,92.94
2018-01-23T10:11:11.579Z,93.41
2018-01-23T10:12:11.546Z,92.94
2018-01-23T10:13:11.529Z,92.65
2018-01-23T10:14:11.503Z,92.27
2018-01-23T10:15:11.465Z,92.36
2018-01-23T10:16:11.433Z,92.65
2018-01-23T10:17:11.405Z,91.42
2018-01-23T10:18:11.376Z,91.32
2018-01-23T10:19:11.349Z,91.61
2018-01-23T10:20:11.328Z,91.80
2018-01-23T10:21:11.295Z,91.51
2018-01-23T10:22:11.264Z,91.80
2018-01-23T10:23:11.241Z,91.03
2018-01-23T10:24:11.208Z,91.56
2018-01-23T10:25:11.180Z,91.56
2018-01-23T10:26:11.152Z,90.61
2018-01-23T10:27:11.118Z,90.56
2018-01-23T10:28:11.094Z,90.56
2018-01-23T10:29:11.074Z,90.08
2018-01-23T10:30:11.039Z,90.66
2018-01-23T10:31:11.009Z,90.94
2018-01-23T10:32:10.979Z,90.47
2018-01-23T10:33:10.959Z,90.94
2018-01-23T10:34:10.926Z,91.42
2018-01-23T10:35:10.897Z,90.94
2018-01-23T10:36:10.884Z,91.13
2018-01-23T10:37:10.848Z,92.46
2018-01-23T10:38:10.815Z,92.46
2018-01-23T10:39:10.783Z,92.94
2018-01-23T10:40:10.755Z,93.41
2018-01-23T10:41:10.738Z,92.84
2018-01-23T10:42:10.702Z,93.23
2018-01-23T10:43:10.668Z,93.13
2018-01-23T10:44:10.644Z,93.04
2018-01-23T10:45:10.616Z,93.51
2018-01-23T10:46:10.581Z,93.13
2018-01-23T10:47:10.561Z,93.23
2018-01-23T10:48:10.523Z,92.94
2018-01-23T10:49:10.499Z,93.32
2018-01-23T10:50:10.469Z,93.32
2018-01-23T10:51:10.443Z,93.98
2018-01-23T10:52:10.423Z,92.36
2018-01-23T10:53:10.391Z,91.61
2018-01-23T10:54:10.356Z,91.61
2018-01-23T10:55:10.330Z,90.75
2018-01-23T10:56:10.298Z,91.42
2018-01-23T10:57:10.272Z,91.75
2018-01-23T10:58:10.243Z,90.61
2018-01-23T10:59:10.223Z,90.70
2018-01-23T11:00:10.187Z,90.32
2018-01-23T11:01:10.163Z,90.03
2018-01-23T11:02:10.133Z,90.22
2018-01-23T11:03:10.100Z,90.61
2018-01-23T11:04:10.079Z,90.51
2018-01-23T11:05:10.052Z,90.75
2018-01-23T11:06:10.018Z,90.99
2018-01-23T11:07:09.989Z,90.99
2018-01-23T11:08:09.955Z,90.89
2018-01-23T11:09:09.930Z,90.89
2018-01-23T11:10:09.902Z,90.80
2018-01-23T11:11:09.870Z,90.03
2018-01-23T11:12:09.848Z,90.22
2018-01-23T11:13:09.816Z,90.32
2018-01-23T11:14:09.788Z,89.65
2018-01-23T11:15:12.723Z,89.47
2018-01-23T11:16:09.733Z,89.37
2018-01-23T11:17:09.705Z,89.47
2018-01-23T11:18:09.688Z,88.42
2018-01-23T11:19:09.650Z,88.32
2018-01-23T11:20:09.622Z,88.32
2018-01-23T11:21:09.601Z,87.94
2018-01-23T11:22:09.568Z,88.32
2018-01-23T11:23:09.537Z,88.13
2018-01-23T11:24:09.510Z,88.13
2018-01-23T11:25:09.480Z,87.75
2018-01-23T11:26:09.453Z,87.56
2018-01-23T11:27:09.426Z,87.46
2018-01-23T11:28:09.400Z,86.99
2018-01-23T11:29:09.374Z,87.37
2018-01-23T11:30:09.336Z,86.90
2018-01-23T11:31:09.315Z,87.37
2018-01-23T11:32:09.285Z,87.18
2018-01-23T11:33:09.260Z,87.27
2018-01-23T11:34:09.231Z,87.27
2018-01-23T11:35:09.208Z,87.18
2018-01-23T11:36:09.176Z,87.27
2018-01-23T11:37:09.148Z,86.90
2018-01-23T11:38:09.122Z,86.61
2018-01-23T11:39:09.093Z,87.56
2018-01-23T11:40:09.059Z,87.08
2018-01-23T11:41:09.865Z,87.46
2018-01-23T11:42:09.004Z,86.70
2018-01-23T11:43:08.974Z,87.37
2018-01-23T11:44:08.954Z,87.46
2018-01-23T11:45:08.918Z,88.32
2018-01-23T11:46:08.889Z,88.23
2018-01-23T11:47:08.867Z,88.32
2018-01-23T11:48:08.838Z,88.32
2018-01-23T11:49:08.837Z,88.13
2018-01-23T11:50:10.733Z,87.56
2018-01-23T11:51:08.756Z,88.18
2018-01-23T11:52:08.729Z,88.23
2018-01-23T11:53:08.696Z,88.23
2018-01-23T11:54:08.668Z,88.60
2018-01-23T11:55:08.642Z,88.23
2018-01-23T11:56:08.611Z,88.42
2018-01-23T11:57:08.586Z,88.99
2018-01-23T11:58:08.640Z,88.79
2018-01-23T11:59:10.274Z,89.08
2018-01-23T12:00:08.502Z,89.65
2018-01-23T12:01:08.475Z,89.84
2018-01-23T12:02:08.445Z,89.47
2018-01-23T12:03:08.551Z,89.08
2018-01-23T12:04:08.462Z,89.08
2018-01-23T12:05:08.359Z,88.79
2018-01-23T12:06:08.330Z,89.47
2018-01-23T12:07:08.352Z,89.22
2018-01-23T12:08:08.275Z,88.70
2018-01-23T12:09:08.244Z,88.89
2018-01-23T12:10:08.223Z,89.56
2018-01-23T12:11:08.206Z,88.89
2018-01-23T12:12:09.727Z,89.47
2018-01-23T12:13:08.149Z,89.37
2018-01-23T12:14:08.112Z,89.08
2018-01-23T12:15:08.086Z,89.47
2018-01-23T12:16:10.728Z,89.65
2018-01-23T12:17:08.025Z,88.60
2018-01-23T12:18:08.004Z,88.60
2018-01-23T12:19:07.963Z,88.70
2018-01-23T12:20:07.937Z,88.51
2018-01-23T12:21:07.924Z,89.13
2018-01-23T12:22:07.884Z,88.27
2018-01-23T12:23:07.854Z,88.37
2018-01-23T12:24:07.829Z,88.08
2018-01-23T12:25:07.797Z,88.18
2018-01-23T12:26:07.771Z,87.89
2018-01-23T12:27:07.745Z,88.37
2018-01-23T12:28:07.719Z,88.65
2018-01-23T12:29:07.688Z,87.70
2018-01-23T12:30:07.663Z,87.32
2018-01-23T12:31:07.693Z,87.41
2018-01-23T12:32:07.608Z,86.75
2018-01-23T12:33:07.657Z,86.75
2018-01-23T12:34:07.553Z,85.80
2018-01-23T12:35:07.531Z,85.89
2018-01-23T12:36:07.498Z,85.89
2018-01-23T12:37:07.511Z,86.18
2018-01-23T12:38:07.440Z,85.51
2018-01-23T12:39:07.421Z,85.99
2018-01-23T12:40:07.381Z,85.89
2018-01-23T12:41:07.367Z,85.41
2018-01-23T12:42:07.331Z,84.75
2018-01-23T12:43:07.303Z,85.03
2018-01-23T12:44:07.278Z,84.84
2018-01-23T12:45:07.248Z,84.46
2018-01-23T12:46:07.247Z,84.56
2018-01-23T12:47:07.193Z,84.46
2018-01-23T12:48:08.733Z,84.50
2018-01-23T12:49:07.141Z,84.22
2018-01-23T12:50:07.114Z,83.55
2018-01-23T12:51:07.082Z,83.45
2018-01-23T12:52:07.053Z,82.89